< Typhoon 201222 2012 Season Typhoon 201224 >
Typhoon 201223 (SON-TINH)
General InformationTrack Information on Google MapsDetailed Wind InformationAccess Analytics MapList of All Images || NewsDisaster Info.WeblogTrackbackTyphoon FrontTwiphoonTyphoon Now!Typhoon ImaginationResourceGoogle EarthGE AnimationAtom FeedGeoJSON
Detalied Best Track (Time Zone = UTC)
Year Month Day Hour Lat. Long. Pressure (hPa) Wind (kt) Class Image Chart
2012 10 21 12 6.4 135.0 1008 0 2 Image Chart
2012 10 21 18 6.9 133.7 1004 0 2 Image Chart
2012 10 22 00 7.4 133.4 1006 0 2 Image Chart
2012 10 22 06 8.0 132.7 1004 0 2 Image Chart
2012 10 22 12 8.6 131.9 1004 0 2 Image Chart
2012 10 22 18 8.8 131.0 1004 0 2 Image Chart
2012 10 23 00 8.4 130.0 1004 0 2 Image Chart
2012 10 23 06 8.0 128.9 1000 0 2 Image Chart
2012 10 23 12 8.3 128.1 1000 35 3 Image Chart
2012 10 23 18 8.8 127.5 998 35 3 Image Chart
2012 10 24 00 10.0 126.3 998 35 3 Image Chart
2012 10 24 06 10.8 124.9 996 35 3 Image Chart
2012 10 24 12 11.4 123.9 998 35 3 Image Chart
2012 10 24 18 11.9 122.3 996 40 3 Image Chart
2012 10 25 00 12.8 120.9 998 40 3 Image Chart
2012 10 25 06 14.0 119.6 998 40 3 Image Chart
2012 10 25 12 14.4 117.6 998 40 3 Image Chart
2012 10 25 18 14.4 116.8 996 40 3 Image Chart
2012 10 26 00 14.6 115.6 990 45 3 Image Chart
2012 10 26 06 14.9 114.8 980 55 4 Image Chart
2012 10 26 12 15.5 113.6 980 55 4 Image Chart
2012 10 26 18 16.1 112.2 975 60 4 Image Chart
2012 10 27 00 16.5 111.0 975 60 4 Image Chart
2012 10 27 06 17.0 109.7 965 70 5 Image Chart
2012 10 27 12 17.5 108.9 945 85 5 Image Chart
2012 10 27 18 18.1 107.8 955 80 5 Image Chart
2012 10 28 00 18.4 107.5 965 75 5 Image Chart
2012 10 28 06 19.2 107.1 970 70 5 Image Chart
2012 10 28 12 19.8 106.7 980 60 4 Image Chart
2012 10 28 18 20.7 106.6 990 45 3 Image Chart
2012 10 29 00 21.3 107.0 1004 35 3 Image Chart
2012 10 29 06 21.5 107.1 1008 0 2 Image Chart
2012 10 29 12 21.8 107.6 1008 0 2 Image Chart
Japan Meteorological Agency Best Track Data | Correction Date : 2012-11-27
< Typhoon 201222 2012 Season Typhoon 201224 >

Help